createdAt,value
2024-02-23T00:00:06.763Z,9.09
2024-02-23T00:02:35.084Z,9.09
2024-02-23T00:05:07.532Z,9.13
2024-02-23T00:07:35.973Z,9.13
2024-02-23T00:10:04.646Z,9.12
2024-02-23T00:12:33.039Z,9.09
2024-02-23T00:15:01.365Z,9.03
2024-02-23T00:17:29.885Z,8.98
2024-02-23T00:19:58.241Z,8.93
2024-02-23T00:22:28.068Z,8.90
2024-02-23T00:24:56.691Z,8.86
2024-02-23T00:27:25.102Z,8.85
2024-02-23T00:29:53.394Z,8.82
2024-02-23T00:32:21.798Z,8.80
2024-02-23T00:34:50.244Z,8.78
2024-02-23T00:37:18.890Z,8.76
2024-02-23T00:39:48.612Z,8.77
2024-02-23T00:42:17.014Z,8.72
2024-02-23T00:44:45.314Z,8.66
2024-02-23T00:47:13.687Z,8.69
2024-02-23T00:49:42.027Z,8.66
2024-02-23T00:52:11.712Z,8.58
2024-02-23T00:54:40.092Z,8.55
2024-02-23T00:57:09.875Z,8.54
2024-02-23T00:59:38.266Z,8.53
2024-02-23T01:02:07.011Z,8.51
2024-02-23T01:04:35.616Z,8.47
2024-02-23T01:07:03.947Z,8.47
2024-02-23T01:09:32.311Z,8.42
2024-02-23T01:12:00.833Z,8.36
2024-02-23T01:14:30.702Z,8.30
2024-02-23T01:16:59.367Z,8.27
2024-02-23T01:19:27.811Z,8.22
2024-02-23T01:22:01.186Z,8.20
2024-02-23T01:24:30.557Z,8.18
2024-02-23T01:26:59.188Z,8.11
2024-02-23T01:29:28.088Z,8.08
2024-02-23T01:31:58.301Z,8.05
2024-02-23T01:34:26.751Z,8.02
2024-02-23T01:36:55.074Z,8.00
2024-02-23T01:39:23.400Z,7.97
2024-02-23T01:41:51.725Z,7.92
2024-02-23T01:44:22.370Z,7.92
2024-02-23T01:46:51.165Z,7.90
2024-02-23T01:49:22.635Z,7.90
2024-02-23T01:51:51.125Z,7.89
2024-02-23T01:54:19.408Z,7.87
2024-02-23T01:56:47.990Z,7.82
2024-02-23T01:59:16.807Z,7.81
2024-02-23T02:01:45.371Z,7.76
2024-02-23T02:04:13.787Z,7.73
2024-02-23T02:06:43.594Z,7.71
2024-02-23T02:09:12.174Z,7.68
2024-02-23T02:11:48.000Z,7.66
2024-02-23T02:14:16.418Z,7.64
2024-02-23T02:16:45.158Z,7.61
2024-02-23T02:19:13.510Z,7.58
2024-02-23T02:21:43.350Z,7.54
2024-02-23T02:24:13.773Z,7.51
2024-02-23T02:26:44.371Z,7.48
2024-02-23T02:29:12.737Z,7.45
2024-02-23T02:31:41.411Z,7.41
2024-02-23T02:34:09.821Z,7.38
2024-02-23T02:36:38.230Z,7.36
2024-02-23T02:39:11.379Z,7.33
2024-02-23T02:41:40.054Z,7.35
2024-02-23T02:44:08.765Z,7.33
2024-02-23T02:46:37.172Z,7.31
2024-02-23T02:49:05.925Z,7.27
2024-02-23T02:51:34.316Z,7.22
2024-02-23T02:54:02.925Z,7.17
2024-02-23T02:56:32.746Z,7.12
2024-02-23T02:59:01.184Z,7.04
2024-02-23T03:01:29.601Z,6.97
2024-02-23T03:03:57.971Z,6.93
2024-02-23T03:06:26.404Z,6.85
2024-02-23T03:08:55.107Z,6.81
2024-02-23T03:11:23.522Z,6.73
2024-02-23T03:13:53.593Z,6.67
2024-02-23T03:16:24.512Z,6.62
2024-02-23T03:18:52.898Z,6.56
2024-02-23T03:21:21.195Z,6.52
2024-02-23T03:23:49.669Z,6.48
2024-02-23T03:26:18.564Z,6.42
2024-02-23T03:28:46.980Z,6.38
2024-02-23T03:31:16.749Z,6.30
2024-02-23T03:33:45.278Z,6.21
2024-02-23T03:36:13.744Z,6.15
2024-02-23T03:38:42.190Z,6.09
2024-02-23T03:41:10.524Z,6.03
2024-02-23T03:43:39.609Z,6.02
2024-02-23T03:46:08.627Z,5.99
2024-02-23T03:48:38.610Z,5.94
2024-02-23T03:51:07.463Z,5.93
2024-02-23T03:53:35.766Z,5.85
2024-02-23T03:56:04.221Z,5.86
2024-02-23T03:58:32.582Z,5.86
2024-02-23T04:01:01.348Z,5.83
2024-02-23T04:03:29.648Z,5.80
2024-02-23T04:05:58.409Z,5.81
2024-02-23T04:08:26.769Z,5.79
2024-02-23T04:10:55.185Z,5.76
2024-02-23T04:13:23.523Z,5.73
2024-02-23T04:15:52.098Z,5.70
2024-02-23T04:18:20.462Z,5.63
2024-02-23T04:20:49.072Z,5.53
2024-02-23T04:23:18.937Z,5.48
2024-02-23T04:25:47.300Z,5.44
2024-02-23T04:28:15.881Z,5.45
2024-02-23T04:30:44.169Z,5.44
2024-02-23T04:33:12.534Z,5.42
2024-02-23T04:35:40.923Z,5.41
2024-02-23T04:38:09.267Z,5.42
2024-02-23T04:40:39.004Z,5.43
2024-02-23T04:43:07.644Z,5.41
2024-02-23T04:45:36.043Z,5.32
2024-02-23T04:48:05.132Z,5.26
2024-02-23T04:50:33.620Z,5.26
2024-02-23T04:53:02.004Z,5.22
2024-02-23T04:55:30.386Z,5.21
2024-02-23T04:58:00.530Z,5.20
2024-02-23T05:00:34.438Z,5.19
2024-02-23T05:03:05.052Z,5.20
2024-02-23T05:05:33.893Z,5.22
2024-02-23T05:08:02.280Z,5.24
2024-02-23T05:10:30.964Z,5.25
2024-02-23T05:13:00.730Z,5.25
2024-02-23T05:15:29.047Z,5.25
2024-02-23T05:17:57.430Z,5.21
2024-02-23T05:20:25.905Z,5.19
2024-02-23T05:22:54.301Z,5.20
2024-02-23T05:25:23.018Z,5.20
2024-02-23T05:27:51.435Z,5.18
2024-02-23T05:30:21.289Z,5.16
2024-02-23T05:32:50.167Z,5.08
2024-02-23T05:35:19.258Z,5.03
2024-02-23T05:37:47.894Z,4.97
2024-02-23T05:40:16.584Z,4.92
2024-02-23T05:42:44.942Z,4.86
2024-02-23T05:45:13.297Z,4.81
2024-02-23T05:47:46.198Z,4.80
2024-02-23T05:50:17.260Z,4.78
2024-02-23T05:52:46.015Z,4.74
2024-02-23T05:55:14.417Z,4.71
2024-02-23T05:57:42.791Z,4.72
2024-02-23T06:00:13.820Z,4.70
2024-02-23T06:02:44.724Z,4.70
2024-02-23T06:05:13.936Z,4.70
2024-02-23T06:07:43.933Z,4.68
2024-02-23T06:10:12.446Z,4.68
2024-02-23T06:12:40.829Z,4.70
2024-02-23T06:15:10.311Z,4.73
2024-02-23T06:17:38.679Z,4.72
2024-02-23T06:20:10.971Z,4.75
2024-02-23T06:22:39.363Z,4.76
2024-02-23T06:25:08.059Z,4.77
2024-02-23T06:27:36.438Z,4.79
2024-02-23T06:30:05.110Z,4.78
2024-02-23T06:32:33.452Z,4.78
2024-02-23T06:35:01.932Z,4.80
2024-02-23T06:37:31.811Z,4.82
2024-02-23T06:40:00.241Z,4.85
2024-02-23T06:42:28.585Z,4.86
2024-02-23T06:44:57.797Z,4.88
2024-02-23T06:47:26.465Z,4.91
2024-02-23T06:49:55.005Z,4.95
2024-02-23T06:52:24.593Z,4.96
2024-02-23T06:54:54.396Z,4.98
2024-02-23T06:57:23.793Z,4.99
2024-02-23T06:59:52.424Z,5.02
2024-02-23T07:02:20.819Z,5.03
2024-02-23T07:04:49.165Z,5.06
2024-02-23T07:07:17.554Z,5.05
2024-02-23T07:09:46.103Z,5.04
2024-02-23T07:12:15.964Z,5.05
2024-02-23T07:14:44.364Z,5.06
2024-02-23T07:17:12.707Z,5.06
2024-02-23T07:19:41.222Z,5.07
2024-02-23T07:22:09.573Z,5.05
2024-02-23T07:24:41.592Z,5.02
2024-02-23T07:27:09.948Z,5.04
2024-02-23T07:29:40.050Z,5.02
2024-02-23T07:32:08.957Z,5.04
2024-02-23T07:34:37.867Z,5.03
2024-02-23T07:37:06.337Z,4.99
2024-02-23T07:39:34.684Z,4.95
2024-02-23T07:42:03.913Z,4.92
2024-02-23T07:44:32.276Z,4.89
2024-02-23T07:47:02.220Z,4.89
2024-02-23T07:49:30.602Z,4.89
2024-02-23T07:51:59.079Z,4.91
2024-02-23T07:54:27.692Z,4.93
2024-02-23T07:56:56.060Z,4.93
2024-02-23T07:59:24.479Z,4.93
2024-02-23T08:01:52.829Z,4.94
2024-02-23T08:04:22.632Z,4.98
2024-02-23T08:06:52.198Z,5.00
2024-02-23T08:09:20.594Z,5.03
2024-02-23T08:11:49.041Z,5.03
2024-02-23T08:14:17.669Z,5.01
2024-02-23T08:16:46.025Z,5.06
2024-02-23T08:19:14.429Z,5.12
2024-02-23T08:21:45.318Z,5.20
2024-02-23T08:24:13.646Z,5.30
2024-02-23T08:26:43.203Z,5.38
2024-02-23T08:29:11.578Z,5.45
2024-02-23T08:31:42.479Z,5.48
2024-02-23T08:34:11.500Z,5.57
2024-02-23T08:36:39.881Z,5.56
2024-02-23T08:39:10.184Z,5.60
2024-02-23T08:41:38.571Z,5.56
2024-02-23T08:44:07.117Z,5.63
2024-02-23T08:46:35.579Z,5.65
2024-02-23T08:49:04.414Z,5.64
2024-02-23T08:51:32.725Z,5.64
2024-02-23T08:54:05.592Z,5.54
2024-02-23T08:56:39.340Z,5.55
2024-02-23T08:59:07.856Z,5.57
2024-02-23T09:01:36.266Z,5.48
2024-02-23T09:04:04.701Z,5.50
2024-02-23T09:06:37.851Z,5.57
2024-02-23T09:09:07.956Z,5.68
2024-02-23T09:11:38.286Z,5.71
2024-02-23T09:14:06.980Z,5.77
2024-02-23T09:16:35.562Z,5.82
2024-02-23T09:19:03.900Z,5.85
2024-02-23T09:21:32.271Z,5.94
2024-02-23T09:24:00.676Z,6.06
2024-02-23T09:26:29.414Z,6.10
2024-02-23T09:28:59.280Z,6.09
2024-02-23T09:31:29.406Z,6.16
2024-02-23T09:33:58.182Z,6.26
2024-02-23T09:36:26.661Z,6.36
2024-02-23T09:38:55.105Z,6.44
2024-02-23T09:41:24.764Z,6.42
2024-02-23T09:43:54.172Z,6.43
2024-02-23T09:46:24.033Z,6.44
2024-02-23T09:48:52.535Z,6.48
2024-02-23T09:51:21.727Z,6.47
2024-02-23T09:53:50.150Z,6.47
2024-02-23T09:56:21.148Z,6.46
2024-02-23T09:58:50.415Z,6.50
2024-02-23T10:01:20.116Z,6.50
2024-02-23T10:03:49.980Z,6.53
2024-02-23T10:06:18.815Z,6.57
2024-02-23T10:08:47.447Z,6.64
2024-02-23T10:11:17.136Z,6.61
2024-02-23T10:13:45.703Z,6.64
2024-02-23T10:16:15.992Z,6.65
2024-02-23T10:18:44.773Z,6.69
2024-02-23T10:21:14.508Z,6.65
2024-02-23T10:23:43.044Z,6.70
2024-02-23T10:26:11.521Z,6.65
2024-02-23T10:28:40.704Z,6.54
2024-02-23T10:31:11.633Z,6.46
2024-02-23T10:33:42.242Z,6.45
2024-02-23T10:36:10.775Z,6.47
2024-02-23T10:38:41.364Z,6.45
2024-02-23T10:41:10.262Z,6.51
2024-02-23T10:43:48.244Z,6.59
2024-02-23T10:46:17.105Z,6.57
2024-02-23T10:48:47.079Z,6.61
2024-02-23T10:51:20.241Z,6.55
2024-02-23T10:53:51.355Z,6.63
2024-02-23T10:56:19.987Z,6.64
2024-02-23T10:58:48.382Z,6.60
2024-02-23T11:01:17.007Z,6.60
2024-02-23T11:03:49.242Z,6.66
2024-02-23T11:06:22.473Z,6.75
2024-02-23T11:08:54.018Z,6.70
2024-02-23T11:11:22.534Z,6.77
2024-02-23T11:13:50.932Z,6.70
2024-02-23T11:16:24.661Z,6.66
2024-02-23T11:18:53.001Z,6.63
2024-02-23T11:21:21.392Z,6.61
2024-02-23T11:23:51.218Z,6.56
2024-02-23T11:26:20.953Z,6.62
2024-02-23T11:28:50.033Z,6.62
2024-02-23T11:31:18.777Z,6.59
2024-02-23T11:33:53.549Z,6.58
2024-02-23T11:36:25.155Z,6.61
2024-02-23T11:38:57.075Z,6.67
2024-02-23T11:41:27.064Z,6.74
2024-02-23T11:43:56.440Z,6.71
2024-02-23T11:46:25.069Z,6.80
2024-02-23T11:48:55.972Z,6.86
2024-02-23T11:51:25.525Z,6.90
2024-02-23T11:53:53.919Z,6.83
2024-02-23T11:56:22.831Z,6.75
2024-02-23T11:58:52.610Z,6.81
2024-02-23T12:01:20.992Z,6.79
2024-02-23T12:03:49.433Z,6.77
2024-02-23T12:06:17.824Z,6.63
2024-02-23T12:08:48.077Z,6.53
2024-02-23T12:11:16.662Z,6.55
2024-02-23T12:13:46.110Z,6.53
2024-02-23T12:16:16.785Z,6.58
2024-02-23T12:18:45.208Z,6.57
2024-02-23T12:21:14.575Z,6.57
2024-02-23T12:23:42.437Z,6.63
2024-02-23T12:26:10.897Z,6.70
2024-02-23T12:28:39.237Z,6.77
2024-02-23T12:31:07.951Z,6.85
2024-02-23T12:33:38.907Z,6.94
2024-02-23T12:36:07.907Z,6.95
2024-02-23T12:38:36.330Z,6.98
2024-02-23T12:41:04.952Z,6.87
2024-02-23T12:43:33.300Z,6.79
2024-02-23T12:46:02.920Z,6.77
2024-02-23T12:48:31.310Z,6.63
2024-02-23T12:51:01.178Z,6.63
2024-02-23T12:53:34.125Z,6.59
2024-02-23T12:56:03.582Z,6.65
2024-02-23T12:58:32.062Z,6.60
2024-02-23T13:01:00.504Z,6.63
2024-02-23T13:03:30.057Z,6.53
2024-02-23T13:06:00.230Z,6.52
2024-02-23T13:08:28.713Z,6.49
2024-02-23T13:10:57.200Z,6.50
2024-02-23T13:13:25.921Z,6.52
2024-02-23T13:15:54.788Z,6.53
2024-02-23T13:18:23.701Z,6.58
2024-02-23T13:20:52.671Z,6.58
2024-02-23T13:23:22.560Z,6.53
2024-02-23T13:25:50.960Z,6.43
2024-02-23T13:28:19.296Z,6.26
2024-02-23T13:30:47.629Z,6.14
2024-02-23T13:33:17.595Z,6.14
2024-02-23T13:35:46.165Z,6.22
2024-02-23T13:38:14.633Z,6.29
2024-02-23T13:40:44.491Z,6.17
2024-02-23T13:43:12.937Z,6.14
2024-02-23T13:45:51.127Z,6.11
2024-02-23T13:48:20.676Z,6.14
2024-02-23T13:50:49.338Z,6.12
2024-02-23T13:53:17.882Z,6.11
2024-02-23T13:55:47.663Z,6.07
2024-02-23T13:58:16.030Z,6.04
2024-02-23T14:00:44.682Z,6.01
2024-02-23T14:03:14.528Z,5.92
2024-02-23T14:05:45.871Z,5.89
2024-02-23T14:08:14.603Z,5.86
2024-02-23T14:10:44.546Z,5.90
2024-02-23T14:13:14.410Z,5.93
2024-02-23T14:15:43.033Z,5.97
2024-02-23T14:18:11.362Z,6.01
2024-02-23T14:20:39.849Z,5.97
2024-02-23T14:23:08.214Z,5.92
2024-02-23T14:25:36.529Z,5.86
2024-02-23T14:28:05.614Z,5.85
2024-02-23T14:30:35.372Z,5.82
2024-02-23T14:33:03.798Z,5.81
2024-02-23T14:35:32.120Z,5.79
2024-02-23T14:38:00.520Z,5.78
2024-02-23T14:40:29.081Z,5.74
2024-02-23T14:42:57.628Z,5.66
2024-02-23T14:45:25.959Z,5.66
2024-02-23T14:47:55.768Z,5.64
2024-02-23T14:50:24.245Z,5.62
2024-02-23T14:52:52.646Z,5.59
2024-02-23T14:55:21.130Z,5.60
2024-02-23T14:57:49.430Z,5.65
2024-02-23T15:00:18.647Z,5.67
2024-02-23T15:02:47.019Z,5.65
2024-02-23T15:05:19.032Z,5.64
2024-02-23T15:07:47.654Z,5.59
2024-02-23T15:10:16.589Z,5.63
2024-02-23T15:12:44.901Z,5.65
2024-02-23T15:15:13.235Z,5.68
2024-02-23T15:17:43.424Z,5.67
2024-02-23T15:20:12.918Z,5.68
2024-02-23T15:22:44.059Z,5.63
2024-02-23T15:25:13.679Z,5.64
2024-02-23T15:27:42.083Z,5.62
2024-02-23T15:30:11.716Z,5.56
2024-02-23T15:32:40.264Z,5.56
2024-02-23T15:35:09.357Z,5.49
2024-02-23T15:37:38.104Z,5.44
2024-02-23T15:40:09.130Z,5.39
2024-02-23T15:42:37.936Z,5.40
2024-02-23T15:45:07.354Z,5.35
2024-02-23T15:47:35.891Z,5.36
2024-02-23T15:50:22.707Z,5.38
2024-02-23T15:52:53.118Z,5.30
2024-02-23T15:55:22.986Z,5.23
2024-02-23T15:57:51.365Z,5.23
2024-02-23T16:00:20.488Z,5.15
2024-02-23T16:02:49.237Z,5.11
2024-02-23T16:05:17.709Z,5.05
2024-02-23T16:07:46.925Z,5.05
2024-02-23T16:10:15.890Z,5.02
2024-02-23T16:12:47.474Z,5.00
2024-02-23T16:15:15.886Z,4.98
2024-02-23T16:17:44.390Z,4.91
2024-02-23T16:20:13.463Z,4.91
2024-02-23T16:22:41.850Z,4.87
2024-02-23T16:25:11.280Z,4.84
2024-02-23T16:27:42.946Z,4.81
2024-02-23T16:30:13.793Z,4.77
2024-02-23T16:32:42.335Z,4.76
2024-02-23T16:35:16.913Z,4.73
2024-02-23T16:37:45.308Z,4.71
2024-02-23T16:40:24.038Z,4.67
2024-02-23T16:42:52.572Z,4.66
2024-02-23T16:45:24.403Z,4.65
2024-02-23T16:47:53.748Z,4.61
2024-02-23T16:50:22.233Z,4.59
2024-02-23T16:52:50.589Z,4.54
2024-02-23T16:55:19.775Z,4.51
2024-02-23T16:57:48.405Z,4.50
2024-02-23T17:00:19.918Z,4.46
2024-02-23T17:02:49.714Z,4.42
2024-02-23T17:05:18.203Z,4.42
2024-02-23T17:07:46.656Z,4.41
2024-02-23T17:10:15.513Z,4.38
2024-02-23T17:12:46.425Z,4.33
2024-02-23T17:15:14.749Z,4.32
2024-02-23T17:17:43.207Z,4.29
2024-02-23T17:20:13.505Z,4.27
2024-02-23T17:22:42.416Z,4.24
2024-02-23T17:25:11.087Z,4.23
2024-02-23T17:27:39.556Z,4.24
2024-02-23T17:30:08.862Z,4.20
2024-02-23T17:32:37.341Z,4.17
2024-02-23T17:35:06.618Z,4.10
2024-02-23T17:37:36.719Z,4.10
2024-02-23T17:40:05.494Z,4.13
2024-02-23T17:42:33.841Z,4.08
2024-02-23T17:45:02.175Z,4.06
2024-02-23T17:47:30.558Z,4.04
2024-02-23T17:49:59.009Z,4.04
2024-02-23T17:52:29.728Z,4.04
2024-02-23T17:55:00.876Z,4.03
2024-02-23T17:57:29.220Z,4.03
2024-02-23T17:59:57.643Z,4.06
2024-02-23T18:02:26.174Z,4.09
2024-02-23T18:04:54.899Z,4.07
2024-02-23T18:07:23.334Z,4.08
2024-02-23T18:09:51.794Z,4.07
2024-02-23T18:12:21.771Z,4.07
2024-02-23T18:14:50.724Z,4.08
2024-02-23T18:17:19.166Z,4.09
2024-02-23T18:19:48.602Z,4.10
2024-02-23T18:22:16.943Z,4.12
2024-02-23T18:24:45.342Z,4.12
2024-02-23T18:27:13.749Z,4.15
2024-02-23T18:29:43.638Z,4.16
2024-02-23T18:32:13.230Z,4.17
2024-02-23T18:34:41.725Z,4.18
2024-02-23T18:37:10.126Z,4.15
2024-02-23T18:39:38.478Z,4.16
2024-02-23T18:42:08.055Z,4.19
2024-02-23T18:44:37.271Z,4.20
2024-02-23T18:47:07.387Z,4.23
2024-02-23T18:49:35.874Z,4.20
2024-02-23T18:52:05.032Z,4.21
2024-02-23T18:54:33.342Z,4.22
2024-02-23T18:57:02.544Z,4.23
2024-02-23T18:59:31.102Z,4.22
2024-02-23T19:01:59.527Z,4.21
2024-02-23T19:04:30.632Z,4.21
2024-02-23T19:06:58.986Z,4.23
2024-02-23T19:09:27.308Z,4.25
2024-02-23T19:11:55.736Z,4.21
2024-02-23T19:14:24.404Z,4.21
2024-02-23T19:16:52.830Z,4.18
2024-02-23T19:19:21.246Z,4.17
2024-02-23T19:21:51.010Z,4.14
2024-02-23T19:24:19.668Z,4.18
2024-02-23T19:26:49.280Z,4.19
2024-02-23T19:29:17.636Z,4.21
2024-02-23T19:31:45.998Z,4.21
2024-02-23T19:34:14.344Z,4.19
2024-02-23T19:36:42.641Z,4.20
2024-02-23T19:39:13.379Z,4.19
2024-02-23T19:41:45.317Z,4.16
2024-02-23T19:44:13.831Z,4.16
2024-02-23T19:46:42.222Z,4.14
2024-02-23T19:49:10.753Z,4.13
2024-02-23T19:51:39.387Z,4.13
2024-02-23T19:54:08.664Z,4.11
2024-02-23T19:56:38.482Z,4.10
2024-02-23T19:59:06.901Z,4.08
2024-02-23T20:01:35.216Z,4.08
2024-02-23T20:04:04.421Z,4.08
2024-02-23T20:06:33.030Z,4.07
2024-02-23T20:09:01.988Z,4.02
2024-02-23T20:11:30.492Z,3.99
2024-02-23T20:14:00.404Z,4.00
2024-02-23T20:16:28.777Z,4.00
2024-02-23T20:18:57.147Z,3.99
2024-02-23T20:21:27.078Z,3.95
2024-02-23T20:23:55.377Z,3.94
2024-02-23T20:26:23.708Z,3.95
2024-02-23T20:28:52.040Z,3.95
2024-02-23T20:31:22.935Z,3.94
2024-02-23T20:33:51.643Z,3.92
2024-02-23T20:36:20.058Z,3.90
2024-02-23T20:38:48.493Z,3.90
2024-02-23T20:41:16.828Z,3.88
2024-02-23T20:43:45.469Z,3.89
2024-02-23T20:46:13.780Z,3.88
2024-02-23T20:48:43.882Z,3.85
2024-02-23T20:51:12.274Z,3.84
2024-02-23T20:53:40.672Z,3.81
2024-02-23T20:56:10.903Z,3.80
2024-02-23T20:58:39.445Z,3.78
2024-02-23T21:01:08.610Z,3.79
2024-02-23T21:03:37.826Z,3.82
2024-02-23T21:06:10.756Z,3.79
2024-02-23T21:08:40.693Z,3.77
2024-02-23T21:11:09.460Z,3.81
2024-02-23T21:13:37.878Z,3.82
2024-02-23T21:16:06.942Z,3.80
2024-02-23T21:18:35.325Z,3.75
2024-02-23T21:21:03.839Z,3.75
2024-02-23T21:23:33.951Z,3.76
2024-02-23T21:26:02.394Z,3.76
2024-02-23T21:28:30.748Z,3.74
2024-02-23T21:31:04.993Z,3.74
2024-02-23T21:33:33.733Z,3.70
2024-02-23T21:36:02.548Z,3.70
2024-02-23T21:38:30.935Z,3.68
2024-02-23T21:41:00.844Z,3.65
2024-02-23T21:43:29.476Z,3.62
2024-02-23T21:45:57.835Z,3.61
2024-02-23T21:48:26.258Z,3.55
2024-02-23T21:50:54.603Z,3.53
2024-02-23T21:53:23.009Z,3.50
2024-02-23T21:55:51.330Z,3.46
2024-02-23T21:58:21.400Z,3.48
2024-02-23T22:00:49.883Z,3.50
2024-02-23T22:03:19.750Z,3.48
2024-02-23T22:05:48.346Z,3.47
2024-02-23T22:08:16.762Z,3.46
2024-02-23T22:10:45.287Z,3.48
2024-02-23T22:13:13.890Z,3.45
2024-02-23T22:15:43.752Z,3.43
2024-02-23T22:18:12.198Z,3.37
2024-02-23T22:20:40.718Z,3.38
2024-02-23T22:23:10.707Z,3.35
2024-02-23T22:25:39.440Z,3.35
2024-02-23T22:28:08.077Z,3.33
2024-02-23T22:30:36.515Z,3.33
2024-02-23T22:33:08.142Z,3.37
2024-02-23T22:35:36.624Z,3.29
2024-02-23T22:38:05.605Z,3.29
2024-02-23T22:40:34.386Z,3.29
2024-02-23T22:43:02.716Z,3.31
2024-02-23T22:45:31.028Z,3.31
2024-02-23T22:47:59.626Z,3.32
2024-02-23T22:50:29.536Z,3.30
2024-02-23T22:52:58.235Z,3.27
2024-02-23T22:55:26.680Z,3.28
2024-02-23T22:57:55.071Z,3.23
2024-02-23T23:00:23.509Z,3.18
2024-02-23T23:02:51.939Z,3.16
2024-02-23T23:05:22.161Z,3.15
2024-02-23T23:07:51.957Z,3.17
2024-02-23T23:10:20.415Z,3.17
2024-02-23T23:12:48.760Z,3.17
2024-02-23T23:15:17.348Z,3.19
2024-02-23T23:17:45.792Z,3.18
2024-02-23T23:20:14.563Z,3.17
2024-02-23T23:22:42.947Z,3.19
2024-02-23T23:25:13.120Z,3.16
2024-02-23T23:27:41.390Z,3.13
2024-02-23T23:30:10.328Z,3.11
2024-02-23T23:32:40.847Z,3.11
2024-02-23T23:35:09.928Z,3.13
2024-02-23T23:37:38.314Z,3.12
2024-02-23T23:40:07.788Z,3.09
2024-02-23T23:42:37.482Z,3.11
2024-02-23T23:45:06.558Z,3.10
2024-02-23T23:47:34.975Z,3.12
2024-02-23T23:50:03.461Z,3.10
2024-02-23T23:52:32.158Z,3.09
2024-02-23T23:55:00.634Z,3.12
2024-02-23T23:57:29.944Z,3.07
2024-02-23T23:59:59.951Z,3.04
